Time;durP1;ratioP1;P1;durP2;ratioP2;P2;SDS_P1;SDS_P2;PMS_P1;PMS_P2;Temp;Humidity;BMP_temperature;BMP_pressure;BME280_temperature;BME280_humidity;BME280_pressure;Samples;Min_cycle;Max_cycle;Signal;HPM_P1;HPM_P2
2021/07/31 00:01:33;;;;;;;5.75;1.95;;;19.60;92.90;;;;;;5030497;28;20076;-46
2021/07/31 00:03:59;;;;;;;2.85;1.85;;;19.50;93.20;;;;;;5030521;28;20033;-45
2021/07/31 00:06:25;;;;;;;4.53;1.90;;;19.50;93.10;;;;;;5030652;28;20463;-45
2021/07/31 00:08:50;;;;;;;4.38;1.73;;;19.40;93.20;;;;;;5030094;28;20068;-45
2021/07/31 00:11:16;;;;;;;3.38;1.90;;;19.40;93.30;;;;;;5030259;28;20036;-45
2021/07/31 00:13:41;;;;;;;8.07;1.92;;;19.40;93.30;;;;;;5029123;28;20088;-47
2021/07/31 00:16:07;;;;;;;6.40;1.85;;;19.40;93.30;;;;;;5030564;28;20040;-45
2021/07/31 00:18:32;;;;;;;7.68;1.92;;;19.40;93.20;;;;;;5031680;28;20461;-46
2021/07/31 00:20:58;;;;;;;3.63;2.10;;;19.30;93.20;;;;;;5036590;28;20025;-48
2021/07/31 00:23:27;;;;;;;5.75;1.52;;;19.30;93.40;;;;;;5037039;28;20029;-45
2021/07/31 00:25:56;;;;;;;3.22;2.00;;;19.30;93.10;;;;;;5037061;28;20414;-45
2021/07/31 00:28:22;;;;;;;6.28;1.98;;;19.30;93.10;;;;;;5037334;28;20056;-46
2021/07/31 00:30:48;;;;;;;5.53;1.80;;;19.20;93.10;;;;;;5036499;28;20036;-46
2021/07/31 00:33:14;;;;;;;7.15;1.90;;;19.20;92.80;;;;;;5037101;28;20021;-47
2021/07/31 00:35:39;;;;;;;5.25;1.67;;;19.20;92.70;;;;;;5036884;28;20025;-46
2021/07/31 00:38:05;;;;;;;2.50;1.80;;;19.10;92.70;;;;;;5036710;28;20052;-46
2021/07/31 00:40:30;;;;;;;5.00;1.67;;;19.20;92.70;;;;;;5036190;28;20029;-49
2021/07/31 00:42:56;;;;;;;8.75;2.15;;;19.10;92.60;;;;;;5036918;28;20040;-48
2021/07/31 00:45:22;;;;;;;6.78;1.80;;;19.10;92.80;;;;;;5036781;28;20025;-48
2021/07/31 00:47:47;;;;;;;6.60;1.50;;;19.10;92.90;;;;;;5036952;28;20056;-47
2021/07/31 00:50:14;;;;;;;9.00;2.50;;;19.10;93.00;;;;;;5034967;28;20029;-46
2021/07/31 00:52:41;;;;;;;5.30;1.92;;;19.00;93.10;;;;;;5036721;28;20037;-48
2021/07/31 00:55:08;;;;;;;3.85;1.92;;;19.00;93.40;;;;;;5036763;28;20076;-46
2021/07/31 00:57:36;;;;;;;2.63;1.40;;;18.90;93.50;;;;;;5036653;28;20034;-46
2021/07/31 01:00:02;;;;;;;6.57;1.85;;;18.90;93.60;;;;;;5034759;28;20017;-48
2021/07/31 01:02:28;;;;;;;5.90;1.70;;;18.80;93.60;;;;;;5036762;28;20025;-48
2021/07/31 01:04:53;;;;;;;6.03;2.10;;;18.70;93.60;;;;;;5036527;28;20552;-48
2021/07/31 01:07:19;;;;;;;7.70;2.22;;;18.60;93.90;;;;;;5036458;28;20022;-46
2021/07/31 01:09:45;;;;;;;4.85;1.50;;;18.60;94.20;;;;;;5035850;28;20083;-49
2021/07/31 01:12:10;;;;;;;4.18;1.40;;;18.50;94.30;;;;;;5036513;28;20034;-49
2021/07/31 01:14:36;;;;;;;5.53;1.88;;;18.50;94.40;;;;;;5036456;28;20108;-47
2021/07/31 01:17:02;;;;;;;8.15;2.08;;;18.40;94.70;;;;;;5036468;28;20033;-47
2021/07/31 01:19:27;;;;;;;7.78;2.22;;;18.40;94.90;;;;;;5035761;28;20029;-50
2021/07/31 01:21:53;;;;;;;6.07;1.90;;;18.30;95.20;;;;;;5036286;28;20395;-49
2021/07/31 01:24:18;;;;;;;5.40;1.83;;;18.30;95.40;;;;;;5036245;28;20392;-46
2021/07/31 01:26:46;;;;;;;4.68;1.80;;;18.20;95.50;;;;;;5036404;28;20037;-49
2021/07/31 01:29:14;;;;;;;3.33;1.90;;;18.20;95.40;;;;;;5035565;28;20510;-46
2021/07/31 01:31:42;;;;;;;6.88;1.95;;;18.10;95.40;;;;;;5032334;28;20095;-46
2021/07/31 01:34:08;;;;;;;2.47;2.03;;;18.10;95.50;;;;;;5033176;28;20041;-46
2021/07/31 01:36:34;;;;;;;3.75;1.85;;;18.00;95.70;;;;;;5033175;28;20391;-47
2021/07/31 01:39:00;;;;;;;1.67;1.58;;;18.10;95.80;;;;;;5032606;28;20026;-48
2021/07/31 01:41:26;;;;;;;6.28;1.90;;;18.10;96.00;;;;;;5033266;28;20503;-48
2021/07/31 01:43:52;;;;;;;2.90;2.28;;;18.10;96.00;;;;;;5032979;28;20037;-46
2021/07/31 01:46:19;;;;;;;6.28;2.08;;;18.00;96.10;;;;;;5033034;28;20025;-46
2021/07/31 01:48:44;;;;;;;8.23;2.17;;;17.80;96.10;;;;;;5032255;28;20036;-46
2021/07/31 01:51:10;;;;;;;5.22;1.88;;;17.80;96.30;;;;;;5032802;28;20033;-46
2021/07/31 01:53:35;;;;;;;5.07;2.00;;;17.70;96.30;;;;;;5014902;28;20473;-47
2021/07/31 01:56:01;;;;;;;7.40;2.38;;;17.70;96.70;;;;;;5030915;28;20033;-46
2021/07/31 01:58:26;;;;;;;4.05;2.03;;;17.70;96.60;;;;;;5032736;28;20061;-47
2021/07/31 02:00:53;;;;;;;5.70;2.40;;;17.60;96.70;;;;;;5032037;28;20030;-46
2021/07/31 02:03:19;;;;;;;6.82;1.92;;;17.60;96.90;;;;;;5032744;28;20029;-46
2021/07/31 02:05:45;;;;;;;2.38;1.48;;;17.60;96.80;;;;;;5032312;28;20029;-51
2021/07/31 02:08:11;;;;;;;7.20;1.63;;;17.50;96.90;;;;;;5032536;28;20084;-47
2021/07/31 02:10:36;;;;;;;3.38;1.85;;;17.50;96.90;;;;;;5031858;28;20579;-47
2021/07/31 02:13:02;;;;;;;12.88;2.10;;;17.40;96.90;;;;;;5032410;28;20112;-47
2021/07/31 02:15:28;;;;;;;7.68;2.42;;;17.40;96.90;;;;;;5014566;28;20029;-46
2021/07/31 02:17:53;;;;;;;4.13;1.70;;;17.40;96.90;;;;;;5032292;28;20083;-47
2021/07/31 02:20:19;;;;;;;5.00;2.20;;;17.30;97.10;;;;;;5031650;28;20080;-46
2021/07/31 02:22:44;;;;;;;4.38;1.92;;;17.30;97.00;;;;;;5014585;28;20030;-48
2021/07/31 02:25:10;;;;;;;4.38;2.25;;;17.30;97.20;;;;;;5032158;28;20107;-46
2021/07/31 02:27:35;;;;;;;3.90;1.83;;;17.30;97.30;;;;;;5032297;28;20087;-46
2021/07/31 02:30:01;;;;;;;5.22;2.20;;;17.30;97.70;;;;;;5031408;28;20394;-48
2021/07/31 02:32:26;;;;;;;6.05;2.13;;;17.30;98.40;;;;;;5032504;28;20535;-47
2021/07/31 02:34:52;;;;;;;9.07;2.20;;;17.10;97.60;;;;;;5031956;28;20033;-51
2021/07/31 02:37:17;;;;;;;6.88;2.33;;;17.00;97.60;;;;;;5032012;28;20022;-51
2021/07/31 02:39:43;;;;;;;7.10;1.85;;;17.00;97.70;;;;;;5031301;28;20060;-48
2021/07/31 02:42:08;;;;;;;4.07;1.80;;;16.90;97.90;;;;;;5032057;28;20026;-46
2021/07/31 02:44:35;;;;;;;7.03;1.90;;;16.90;98.00;;;;;;5031853;28;20033;-45
2021/07/31 02:47:00;;;;;;;6.40;2.85;;;16.80;98.00;;;;;;5031834;28;20029;-49
2021/07/31 02:49:26;;;;;;;7.93;2.38;;;16.80;98.10;;;;;;5030903;28;20103;-47
2021/07/31 02:51:52;;;;;;;5.38;2.35;;;16.80;98.10;;;;;;5031760;28;20037;-45
2021/07/31 02:54:18;;;;;;;3.47;2.25;;;16.70;98.10;;;;;;5031718;28;20032;-45
2021/07/31 02:56:43;;;;;;;6.40;2.00;;;16.70;98.20;;;;;;5031858;28;20021;-45
2021/07/31 02:59:09;;;;;;;4.47;1.67;;;16.70;98.40;;;;;;5031066;28;20047;-46
2021/07/31 03:01:34;;;;;;;7.10;2.22;;;16.70;98.40;;;;;;5013843;28;20026;-45
2021/07/31 03:04:00;;;;;;;7.32;1.90;;;16.60;98.40;;;;;;5031335;28;20107;-45
2021/07/31 03:06:26;;;;;;;8.18;2.58;;;16.60;98.50;;;;;;5031469;28;20035;-45
2021/07/31 03:08:51;;;;;;;4.30;2.10;;;16.60;98.40;;;;;;5030821;28;20033;-45
2021/07/31 03:11:17;;;;;;;4.78;2.10;;;16.60;98.50;;;;;;5031366;28;20037;-47
2021/07/31 03:13:42;;;;;;;14.00;2.30;;;16.60;98.50;;;;;;5031281;28;20045;-48
2021/07/31 03:16:08;;;;;;;4.35;2.08;;;16.60;98.50;;;;;;5031527;28;20029;-45
2021/07/31 03:18:34;;;;;;;9.32;2.28;;;16.70;98.80;;;;;;5031181;28;20044;-48
2021/07/31 03:20:59;;;;;;;5.95;2.88;;;16.60;98.90;;;;;;5031085;28;20025;-45
2021/07/31 03:23:26;;;;;;;4.35;1.90;;;16.60;98.60;;;;;;5031299;28;20029;-50
2021/07/31 03:25:59;;;;;;;8.82;2.40;;;16.60;98.30;;;;;;5013352;28;20406;-47
2021/07/31 03:28:25;;;;;;;6.53;2.40;;;16.60;98.00;;;;;;5031238;28;20032;-47
2021/07/31 03:30:51;;;;;;;4.15;1.80;;;16.70;98.10;;;;;;5030558;28;20472;-50
2021/07/31 03:33:17;;;;;;;13.90;2.03;;;16.70;97.60;;;;;;5030951;28;20121;-47
2021/07/31 03:35:43;;;;;;;7.53;1.80;;;16.70;97.40;;;;;;5031038;28;20522;-46
2021/07/31 03:38:09;;;;;;;10.88;1.80;;;16.70;97.30;;;;;;5031130;28;20102;-45
2021/07/31 03:40:36;;;;;;;9.52;2.40;;;16.80;97.60;;;;;;5030434;28;20025;-45
2021/07/31 03:43:01;;;;;;;7.05;1.65;;;16.80;97.50;;;;;;5030898;28;20037;-47
2021/07/31 03:45:27;;;;;;;4.78;2.05;;;16.80;97.40;;;;;;5031298;28;20034;-47
2021/07/31 03:47:53;;;;;;;3.72;1.60;;;16.90;97.50;;;;;;5030745;28;20449;-45
2021/07/31 03:50:19;;;;;;;1.80;1.63;;;17.00;97.30;;;;;;5030182;28;20029;-45
2021/07/31 03:52:44;;;;;;;2.33;1.60;;;16.90;96.60;;;;;;5030714;28;20480;-46
2021/07/31 03:55:10;;;;;;;10.35;2.33;;;16.90;96.50;;;;;;5030313;28;20030;-46
2021/07/31 03:57:36;;;;;;;3.95;1.60;;;16.90;96.50;;;;;;5030795;28;20028;-49
2021/07/31 04:00:03;;;;;;;5.35;1.65;;;17.00;97.20;;;;;;5030212;28;20021;-50
2021/07/31 04:02:29;;;;;;;2.67;1.50;;;17.00;97.10;;;;;;5030807;28;20029;-45
2021/07/31 04:04:55;;;;;;;13.73;1.80;;;16.90;97.00;;;;;;5030665;28;20105;-47
2021/07/31 04:07:20;;;;;;;6.40;2.28;;;16.90;96.90;;;;;;5030779;28;20441;-47
2021/07/31 04:09:46;;;;;;;5.05;2.15;;;16.90;96.90;;;;;;5029793;28;20021;-48
2021/07/31 04:12:11;;;;;;;5.30;2.03;;;16.90;96.90;;;;;;5030402;28;20037;-45
2021/07/31 04:14:36;;;;;;;4.25;2.10;;;16.80;96.60;;;;;;5030353;28;20030;-45
2021/07/31 04:17:02;;;;;;;5.07;1.63;;;16.80;96.70;;;;;;5030271;28;20072;-49
2021/07/31 04:19:28;;;;;;;6.15;3.38;;;16.80;96.70;;;;;;5029705;28;20041;-47
2021/07/31 04:21:56;;;;;;;5.60;1.98;;;16.80;96.90;;;;;;5030384;28;20416;-46
2021/07/31 04:24:22;;;;;;;4.28;1.73;;;16.70;96.80;;;;;;5030208;28;20375;-47
2021/07/31 04:26:47;;;;;;;9.15;1.77;;;16.70;97.00;;;;;;5061555;22;20048;-46
2021/07/31 04:29:14;;;;;;;14.48;2.10;;;16.80;96.80;;;;;;5065077;28;20029;-48
2021/07/31 04:31:39;;;;;;;7.78;2.03;;;16.80;97.20;;;;;;5050046;28;20057;-46
2021/07/31 04:34:04;;;;;;;3.08;1.73;;;16.80;97.10;;;;;;5050114;28;20069;-48
2021/07/31 04:36:31;;;;;;;5.10;1.90;;;16.80;97.00;;;;;;5050365;28;20497;-49
2021/07/31 04:38:57;;;;;;;16.45;2.35;;;16.80;97.20;;;;;;5049489;28;20074;-46
2021/07/31 04:41:23;;;;;;;10.75;2.78;;;16.70;97.20;;;;;;5050136;28;20021;-47
2021/07/31 04:43:49;;;;;;;10.00;2.15;;;16.80;97.30;;;;;;5050048;28;20048;-48
2021/07/31 04:46:14;;;;;;;7.20;2.13;;;16.80;97.30;;;;;;5049866;28;20036;-47
2021/07/31 04:48:39;;;;;;;6.65;1.73;;;16.80;97.20;;;;;;5047974;28;20039;-44
2021/07/31 04:51:05;;;;;;;5.25;2.08;;;16.80;97.30;;;;;;5050629;28;20513;-44
2021/07/31 04:53:31;;;;;;;5.05;1.60;;;16.90;97.30;;;;;;5049743;28;20037;-45
2021/07/31 04:55:57;;;;;;;9.98;2.60;;;16.90;97.20;;;;;;5050799;28;20017;-44
2021/07/31 04:58:23;;;;;;;6.53;2.20;;;16.90;97.20;;;;;;5049150;28;20056;-43
2021/07/31 05:00:49;;;;;;;7.63;2.08;;;17.00;97.10;;;;;;5048741;28;20058;-44
2021/07/31 05:03:15;;;;;;;5.90;1.98;;;17.00;97.20;;;;;;5053398;28;20032;-51
2021/07/31 05:05:42;;;;;;;7.38;1.83;;;17.00;97.10;;;;;;5067962;28;20112;-46
2021/07/31 05:08:08;;;;;;;2.90;1.70;;;17.00;97.10;;;;;;5052180;28;20405;-44
2021/07/31 05:10:36;;;;;;;13.27;1.88;;;17.10;97.30;;;;;;5052925;28;20104;-47
2021/07/31 05:13:02;;;;;;;10.43;2.25;;;17.10;97.20;;;;;;5053428;28;20031;-46
2021/07/31 05:15:27;;;;;;;5.35;1.77;;;17.10;97.20;;;;;;5053420;28;20028;-47
2021/07/31 05:17:53;;;;;;;7.72;1.90;;;17.20;96.90;;;;;;5053366;28;20440;-46
2021/07/31 05:20:18;;;;;;;4.00;1.83;;;17.30;96.70;;;;;;5052722;28;20032;-44
2021/07/31 05:22:44;;;;;;;12.80;2.22;;;17.40;96.90;;;;;;5053474;28;20021;-46
2021/07/31 05:25:10;;;;;;;7.05;1.70;;;17.50;96.50;;;;;;5053185;28;20029;-44
2021/07/31 05:27:35;;;;;;;6.78;1.83;;;17.60;96.40;;;;;;5053289;28;20043;-48
2021/07/31 05:30:01;;;;;;;6.57;1.67;;;17.50;96.80;;;;;;5051160;28;20200;-52
2021/07/31 05:32:26;;;;;;;10.00;1.67;;;17.50;96.60;;;;;;5053248;28;20371;-45
2021/07/31 05:34:55;;;;;;;4.65;1.63;;;17.50;96.50;;;;;;5053116;28;20465;-44
2021/07/31 05:37:21;;;;;;;7.10;1.73;;;17.50;96.60;;;;;;5053147;28;20052;-45
2021/07/31 05:39:46;;;;;;;4.07;2.20;;;17.60;96.40;;;;;;5052308;28;20428;-48
2021/07/31 05:42:12;;;;;;;5.72;2.85;;;17.60;96.20;;;;;;5053038;28;20021;-44
2021/07/31 05:44:37;;;;;;;8.15;2.05;;;17.60;96.30;;;;;;5053031;28;20070;-46
2021/07/31 05:47:03;;;;;;;7.10;2.47;;;17.60;96.30;;;;;;5052933;28;20032;-48
2021/07/31 05:49:30;;;;;;;7.05;1.63;;;17.70;96.10;;;;;;5052450;28;20021;-44
2021/07/31 05:51:55;;;;;;;7.63;1.80;;;17.70;96.20;;;;;;5052896;28;20052;-44
2021/07/31 05:54:21;;;;;;;9.18;1.58;;;17.80;96.10;;;;;;5053150;28;20134;-47
2021/07/31 05:56:46;;;;;;;5.70;1.80;;;17.90;95.80;;;;;;5052749;28;20041;-45
2021/07/31 05:59:12;;;;;;;7.10;1.50;;;18.20;95.60;;;;;;5052958;28;20056;-45
2021/07/31 06:01:37;;;;;;;3.80;1.73;;;18.40;95.20;;;;;;5054011;28;20021;-44
2021/07/31 06:04:03;;;;;;;10.60;2.03;;;18.40;95.20;;;;;;5054601;28;20075;-44
2021/07/31 06:06:29;;;;;;;5.35;1.80;;;18.50;95.20;;;;;;5054231;28;20053;-44
2021/07/31 06:08:54;;;;;;;5.28;2.10;;;18.40;94.90;;;;;;5053870;28;20094;-44
2021/07/31 06:11:20;;;;;;;3.97;1.85;;;18.40;94.80;;;;;;5052775;28;20048;-45
2021/07/31 06:13:45;;;;;;;9.10;1.88;;;18.40;95.10;;;;;;5052297;28;20033;-46
2021/07/31 06:16:11;;;;;;;4.55;1.60;;;18.50;95.00;;;;;;5051980;28;20475;-44
2021/07/31 06:18:37;;;;;;;6.32;1.80;;;18.50;94.80;;;;;;5051470;28;20060;-40
2021/07/31 06:21:04;;;;;;;9.65;1.90;;;18.40;94.80;;;;;;5052571;28;20070;-44
2021/07/31 06:23:29;;;;;;;4.07;1.77;;;18.40;94.90;;;;;;5052663;28;20029;-44
2021/07/31 06:26:01;;;;;;;4.85;2.00;;;18.40;95.00;;;;;;5050223;28;20140;-44
2021/07/31 06:28:27;;;;;;;4.85;1.95;;;18.50;94.70;;;;;;5060993;28;20044;-44
2021/07/31 06:30:53;;;;;;;9.05;2.10;;;18.50;95.00;;;;;;5051253;28;20572;-43
2021/07/31 06:33:18;;;;;;;6.68;1.70;;;18.50;94.90;;;;;;5050016;28;20025;-46
2021/07/31 06:35:44;;;;;;;7.55;1.70;;;18.50;94.70;;;;;;5051068;28;20039;-48
2021/07/31 06:38:10;;;;;;;6.43;2.05;;;18.60;95.00;;;;;;5048428;28;20033;-44
2021/07/31 06:40:36;;;;;;;5.28;2.22;;;18.60;94.60;;;;;;5050858;28;20616;-44
2021/07/31 06:43:01;;;;;;;3.00;1.30;;;18.70;94.40;;;;;;5050952;28;20048;-45
2021/07/31 06:45:27;;;;;;;3.78;2.20;;;18.80;94.40;;;;;;5050016;28;20025;-45
2021/07/31 06:47:52;;;;;;;12.77;1.88;;;18.80;94.20;;;;;;5054060;28;20386;-50
2021/07/31 06:50:18;;;;;;;9.40;1.42;;;18.90;94.00;;;;;;5060566;28;20029;-50
2021/07/31 06:52:43;;;;;;;2.83;1.35;;;19.00;92.80;;;;;;5051368;28;20033;-44
2021/07/31 06:55:10;;;;;;;9.70;1.80;;;19.00;93.30;;;;;;5052808;28;20080;-44
2021/07/31 06:57:35;;;;;;;3.70;1.90;;;19.00;93.60;;;;;;5053300;28;20021;-45
2021/07/31 07:00:01;;;;;;;3.15;1.45;;;19.10;93.80;;;;;;5051347;28;20382;-45
2021/07/31 07:02:26;;;;;;;11.98;1.70;;;19.30;93.10;;;;;;5050430;28;20079;-43
2021/07/31 07:04:52;;;;;;;2.15;1.02;;;19.20;92.40;;;;;;5051613;28;20147;-44
2021/07/31 07:07:19;;;;;;;7.43;1.55;;;19.30;92.50;;;;;;5051711;28;20025;-44
2021/07/31 07:09:44;;;;;;;4.38;1.58;;;19.30;92.30;;;;;;5050981;28;20512;-46
2021/07/31 07:12:10;;;;;;;3.05;1.17;;;19.40;92.30;;;;;;5051785;28;20029;-44
2021/07/31 07:14:36;;;;;;;7.88;1.45;;;19.40;92.20;;;;;;5051881;28;20040;-44
2021/07/31 07:17:05;;;;;;;3.65;1.45;;;19.50;92.10;;;;;;5051539;28;20547;-46
2021/07/31 07:19:30;;;;;;;3.47;1.30;;;19.60;92.40;;;;;;5050794;28;20021;-44
2021/07/31 07:21:56;;;;;;;5.38;1.42;;;19.60;92.20;;;;;;5051452;28;20017;-44
2021/07/31 07:24:21;;;;;;;3.13;1.33;;;19.60;92.30;;;;;;5051217;28;20024;-45
2021/07/31 07:26:47;;;;;;;6.22;2.10;;;19.60;92.10;;;;;;5051399;28;20040;-44
2021/07/31 07:29:12;;;;;;;4.05;2.13;;;19.70;92.00;;;;;;5049618;28;20029;-45
2021/07/31 07:31:38;;;;;;;5.10;1.52;;;19.60;92.30;;;;;;5051067;28;20154;-45
2021/07/31 07:34:03;;;;;;;4.88;1.15;;;19.70;91.90;;;;;;5051119;28;20078;-48
2021/07/31 07:36:29;;;;;;;1.13;1.02;;;19.80;91.80;;;;;;5051045;28;20025;-44
2021/07/31 07:38:54;;;;;;;3.90;1.38;;;19.80;91.50;;;;;;5050525;28;20398;-44
2021/07/31 07:41:20;;;;;;;2.13;1.60;;;19.80;91.60;;;;;;5050991;28;20086;-46
2021/07/31 07:43:45;;;;;;;5.13;1.40;;;19.90;91.70;;;;;;5050932;28;20387;-48
2021/07/31 07:46:16;;;;;;;9.45;1.40;;;19.90;91.70;;;;;;5051213;28;20029;-45
2021/07/31 07:48:45;;;;;;;3.28;1.83;;;19.90;91.70;;;;;;5050788;28;20029;-48
2021/07/31 07:51:11;;;;;;;7.85;1.85;;;20.00;91.60;;;;;;5051493;28;20528;-47
2021/07/31 07:53:37;;;;;;;6.68;1.20;;;20.20;91.20;;;;;;5050719;28;20039;-44
2021/07/31 07:56:03;;;;;;;2.78;1.50;;;20.60;91.30;;;;;;5051032;28;20025;-44
2021/07/31 07:58:29;;;;;;;2.40;1.67;;;20.80;90.30;;;;;;5050824;28;20025;-43
2021/07/31 08:00:54;;;;;;;2.00;1.00;;;21.00;90.30;;;;;;5050436;28;20029;-44
2021/07/31 08:03:20;;;;;;;2.20;1.10;;;21.40;89.50;;;;;;5047681;28;20028;-45
2021/07/31 08:05:46;;;;;;;5.53;1.67;;;21.90;88.70;;;;;;5050612;28;20025;-47
2021/07/31 08:08:11;;;;;;;1.30;1.15;;;22.40;85.80;;;;;;5049246;28;20017;-46
2021/07/31 08:10:37;;;;;;;1.52;0.95;;;22.70;85.70;;;;;;5048029;28;20067;-47
2021/07/31 08:13:03;;;;;;;2.10;0.95;;;23.50;83.50;;;;;;5048840;28;20025;-47
2021/07/31 08:15:28;;;;;;;4.90;0.95;;;24.30;80.70;;;;;;5049936;28;20082;-49
2021/07/31 08:17:54;;;;;;;2.22;1.40;;;25.00;79.40;;;;;;5050380;28;20100;-45
2021/07/31 08:20:21;;;;;;;5.15;1.75;;;25.60;77.20;;;;;;5049885;28;20086;-44
2021/07/31 08:22:47;;;;;;;5.30;1.10;;;26.40;76.00;;;;;;5050503;28;20058;-47
2021/07/31 08:25:12;;;;;;;2.65;0.98;;;27.30;72.70;;;;;;5050408;28;20040;-50
2021/07/31 08:27:38;;;;;;;2.40;0.90;;;27.30;71.80;;;;;;5050281;28;20508;-48
2021/07/31 08:30:05;;;;;;;2.80;0.98;;;27.10;72.40;;;;;;5049738;28;20086;-43
2021/07/31 08:32:30;;;;;;;1.63;1.30;;;27.60;72.00;;;;;;5049364;28;20057;-48
2021/07/31 08:34:56;;;;;;;5.80;1.10;;;28.20;70.50;;;;;;5049447;28;20060;-48
2021/07/31 08:37:21;;;;;;;2.88;0.88;;;28.00;69.00;;;;;;5050323;28;20032;-44
2021/07/31 08:39:47;;;;;;;1.42;0.98;;;27.30;69.50;;;;;;5050309;28;20025;-49
2021/07/31 08:42:13;;;;;;;7.13;1.60;;;27.10;71.50;;;;;;5053409;28;20107;-45
2021/07/31 08:44:40;;;;;;;2.17;1.27;;;27.00;69.90;;;;;;5054699;28;20024;-48
2021/07/31 08:47:07;;;;;;;1.77;0.80;;;26.70;70.70;;;;;;5054205;28;20051;-48
2021/07/31 08:49:34;;;;;;;2.47;1.02;;;26.50;71.50;;;;;;5053597;28;20120;-44
2021/07/31 08:52:02;;;;;;;3.95;1.23;;;26.00;71.50;;;;;;5054032;28;20047;-43
2021/07/31 08:54:28;;;;;;;1.25;1.00;;;25.70;72.00;;;;;;5054387;28;20087;-44
2021/07/31 08:56:54;;;;;;;2.63;1.05;;;25.40;73.40;;;;;;5053872;28;20033;-48
2021/07/31 08:59:28;;;;;;;1.85;0.98;;;25.50;72.60;;;;;;5053452;28;20028;-44
2021/07/31 09:01:57;;;;;;;4.25;1.20;;;25.40;73.30;;;;;;5053895;28;20028;-45
2021/07/31 09:04:23;;;;;;;3.40;1.25;;;25.40;73.00;;;;;;5053712;28;20462;-46
2021/07/31 09:06:50;;;;;;;2.75;1.15;;;25.10;72.70;;;;;;5054005;28;20076;-44
2021/07/31 09:09:26;;;;;;;4.13;1.10;;;24.80;73.80;;;;;;5053871;28;20036;-43
2021/07/31 09:11:55;;;;;;;1.55;0.98;;;24.50;73.40;;;;;;5052657;28;20053;-46
2021/07/31 09:14:20;;;;;;;5.38;1.00;;;24.50;73.60;;;;;;5053699;28;20111;-43
2021/07/31 09:16:46;;;;;;;3.17;1.23;;;24.50;73.70;;;;;;5053444;28;20117;-46
2021/07/31 09:19:13;;;;;;;5.93;1.98;;;24.60;74.10;;;;;;5053950;28;20040;-46
2021/07/31 09:21:40;;;;;;;1.70;1.00;;;24.60;73.40;;;;;;5054046;28;20390;-49
2021/07/31 09:24:16;;;;;;;0.95;0.90;;;24.70;74.00;;;;;;5054553;28;20108;-48
2021/07/31 09:26:51;;;;;;;1.10;1.00;;;24.80;74.10;;;;;;5053788;28;20032;-45
2021/07/31 09:29:57;;;;;;;6.07;1.08;;;25.00;73.60;;;;;;5053042;28;20025;-45
2021/07/31 09:32:39;;;;;;;4.90;1.27;;;25.30;73.60;;;;;;5054168;28;20090;-48
2021/07/31 09:35:24;;;;;;;4.82;1.20;;;25.20;72.20;;;;;;5056334;28;20108;-48
2021/07/31 09:37:53;;;;;;;1.25;0.95;;;25.20;72.80;;;;;;5057904;28;20032;-46
2021/07/31 09:40:29;;;;;;;1.17;0.82;;;24.80;72.20;;;;;;5056840;28;20029;-48
2021/07/31 09:42:55;;;;;;;1.58;1.00;;;24.40;73.50;;;;;;5057303;28;20032;-51
2021/07/31 09:45:32;;;;;;;2.13;1.00;;;24.40;74.00;;;;;;5056565;28;20029;-49
2021/07/31 09:48:04;;;;;;;7.93;1.10;;;24.30;73.50;;;;;;5057470;28;20052;-48
2021/07/31 09:50:38;;;;;;;2.05;0.90;;;24.20;73.70;;;;;;5057041;28;20048;-48
2021/07/31 09:53:10;;;;;;;1.27;1.00;;;24.40;73.30;;;;;;5055780;28;20032;-51
2021/07/31 09:55:46;;;;;;;1.25;0.98;;;24.00;73.40;;;;;;5057174;28;20017;-46
2021/07/31 09:58:19;;;;;;;3.42;1.10;;;23.90;74.60;;;;;;5057622;28;20023;-48
2021/07/31 10:00:47;;;;;;;0.90;0.90;;;23.60;75.10;;;;;;5057475;28;20017;-44
2021/07/31 10:03:13;;;;;;;5.13;1.20;;;23.50;75.30;;;;;;5058374;28;20021;-46
2021/07/31 10:05:40;;;;;;;2.40;1.15;;;23.60;75.50;;;;;;5058555;28;20029;-45
2021/07/31 10:08:07;;;;;;;1.52;1.00;;;23.80;75.50;;;;;;5058988;28;20025;-52
2021/07/31 10:10:34;;;;;;;1.95;1.08;;;23.80;75.70;;;;;;5055856;28;20299;-49
2021/07/31 10:13:00;;;;;;;5.65;1.77;;;24.00;74.70;;;;;;5055725;28;20020;-50
2021/07/31 10:15:26;;;;;;;5.90;1.70;;;24.30;75.10;;;;;;5054547;28;20017;-49
2021/07/31 10:17:52;;;;;;;2.00;1.33;;;24.50;74.60;;;;;;5056731;28;20029;-49
2021/07/31 10:20:27;;;;;;;1.50;1.15;;;24.60;73.60;;;;;;5054537;28;20021;-45
2021/07/31 10:22:54;;;;;;;1.00;1.00;;;24.50;72.20;;;;;;5054784;28;20546;-45
2021/07/31 10:28:22;;;;;;;4.55;1.45;;;24.00;74.40;;;;;;5029412;28;20073;-47
2021/07/31 10:30:48;;;;;;;1.40;1.30;;;24.10;74.60;;;;;;5030664;28;20430;-49
2021/07/31 10:33:42;;;;;;;4.63;1.48;;;24.00;73.70;;;;;;5030839;28;20029;-47
2021/07/31 10:36:32;;;;;;;4.43;1.25;;;24.00;73.90;;;;;;5031940;28;20029;-50
2021/07/31 10:38:59;;;;;;;1.42;1.30;;;24.00;75.40;;;;;;5031425;28;20439;-51
2021/07/31 10:41:56;;;;;;;4.82;1.10;;;24.10;74.70;;;;;;5030454;28;20394;-48
2021/07/31 10:44:22;;;;;;;1.08;1.08;;;24.10;74.40;;;;;;5031921;28;20030;-47
2021/07/31 10:46:48;;;;;;;2.45;1.38;;;24.10;73.90;;;;;;5032077;28;20116;-48
2021/07/31 10:49:36;;;;;;;1.88;1.20;;;24.00;73.00;;;;;;5032170;28;20057;-47
2021/07/31 10:52:02;;;;;;;2.35;1.15;;;24.10;75.00;;;;;;5032308;28;20060;-47
2021/07/31 10:54:58;;;;;;;1.15;1.00;;;24.10;73.90;;;;;;5031963;28;20463;-48
2021/07/31 10:57:52;;;;;;;1.83;1.65;;;24.00;73.60;;;;;;5026861;28;20057;-47
2021/07/31 11:00:40;;;;;;;1.80;1.63;;;24.00;73.80;;;;;;5027073;28;20033;-47
2021/07/31 11:03:13;;;;;;;3.05;1.48;;;24.00;73.70;;;;;;5022315;28;20048;-50
2021/07/31 11:05:47;;;;;;;3.33;1.20;;;24.00;74.50;;;;;;5031773;28;20037;-53
2021/07/31 11:08:13;;;;;;;3.67;1.38;;;24.00;74.30;;;;;;5018913;28;20507;-50
2021/07/31 11:10:43;;;;;;;2.95;1.35;;;24.20;75.80;;;;;;5011807;28;20041;-52
2021/07/31 11:13:17;;;;;;;6.88;1.60;;;24.30;72.80;;;;;;5011622;28;20022;-48
2021/07/31 11:15:55;;;;;;;2.45;1.08;;;24.40;73.30;;;;;;5019028;28;20029;-51
2021/07/31 11:18:24;;;;;;;4.32;2.03;;;24.40;72.90;;;;;;5029756;28;20494;-51
2021/07/31 11:20:50;;;;;;;3.10;1.45;;;24.20;72.30;;;;;;5024842;28;20026;-50
2021/07/31 11:23:18;;;;;;;1.50;1.25;;;23.90;73.30;;;;;;5012222;28;20030;-46
2021/07/31 11:25:44;;;;;;;6.22;1.52;;;23.80;73.40;;;;;;5012909;28;20081;-47
2021/07/31 11:28:10;;;;;;;1.23;1.15;;;23.80;74.10;;;;;;5011618;28;20030;-51
2021/07/31 11:30:42;;;;;;;2.53;1.40;;;23.80;74.20;;;;;;5026142;28;20044;-53
2021/07/31 11:33:25;;;;;;;3.13;0.90;;;23.90;74.40;;;;;;5019342;28;20045;-48
2021/07/31 11:35:53;;;;;;;1.38;1.20;;;23.90;73.10;;;;;;5023346;28;20112;-51
2021/07/31 11:38:49;;;;;;;2.00;1.10;;;23.80;73.40;;;;;;5031168;28;20025;-48
2021/07/31 11:41:15;;;;;;;4.35;1.42;;;23.70;73.80;;;;;;5011231;28;20064;-48
2021/07/31 11:43:55;;;;;;;1.70;1.30;;;23.60;73.70;;;;;;5010178;28;20038;-51
2021/07/31 11:46:31;;;;;;;1.42;1.33;;;23.70;74.30;;;;;;5028043;28;20438;-49
2021/07/31 11:48:58;;;;;;;2.70;1.30;;;23.80;72.80;;;;;;5018992;28;20026;-46
2021/07/31 11:51:24;;;;;;;2.35;1.00;;;23.80;73.00;;;;;;5016835;28;20510;-54
2021/07/31 11:53:50;;;;;;;1.55;1.17;;;23.70;73.10;;;;;;5029826;28;20498;-52
2021/07/31 11:56:22;;;;;;;1.17;1.08;;;23.60;72.90;;;;;;5024530;28;20433;-51
2021/07/31 11:58:52;;;;;;;3.65;1.92;;;23.50;71.80;;;;;;5010418;28;20439;-48
2021/07/31 12:01:18;;;;;;;4.00;1.48;;;23.50;73.10;;;;;;5014410;28;20032;-54
2021/07/31 12:03:52;;;;;;;4.68;1.30;;;23.70;74.10;;;;;;5030289;28;20030;-52
2021/07/31 12:06:41;;;;;;;4.32;1.40;;;24.00;73.60;;;;;;5028197;28;20116;-54
2021/07/31 12:09:20;;;;;;;5.50;2.60;;;23.90;72.90;;;;;;5027483;28;20025;-48
2021/07/31 12:11:47;;;;;;;3.47;1.35;;;24.00;73.40;;;;;;5023910;28;20036;-51
2021/07/31 12:14:32;;;;;;;3.60;1.20;;;24.10;73.80;;;;;;5010022;28;20125;-50
2021/07/31 12:17:12;;;;;;;1.40;0.95;;;24.20;74.00;;;;;;5010304;28;20502;-51
2021/07/31 12:19:54;;;;;;;2.47;1.45;;;24.20;72.20;;;;;;5010632;28;20034;-48
2021/07/31 12:22:24;;;;;;;1.25;1.10;;;24.20;71.90;;;;;;5021734;28;20064;-46
2021/07/31 12:25:08;;;;;;;7.03;1.55;;;24.20;73.30;;;;;;5022955;28;20029;-50
2021/07/31 12:27:50;;;;;;;2.75;1.35;;;24.20;71.50;;;;;;5017596;28;20056;-48
2021/07/31 12:30:27;;;;;;;1.83;1.10;;;24.20;72.00;;;;;;5030040;28;20040;-47
2021/07/31 12:32:56;;;;;;;3.60;1.45;;;24.20;73.20;;;;;;5028856;28;20482;-52
2021/07/31 12:35:30;;;;;;;5.07;1.40;;;24.30;73.80;;;;;;5023921;28;20037;-52
2021/07/31 12:37:55;;;;;;;4.07;1.33;;;24.30;73.60;;;;;;5020223;28;20022;-55
2021/07/31 12:40:21;;;;;;;3.67;1.52;;;24.10;73.30;;;;;;5019515;28;20030;-52
2021/07/31 12:42:46;;;;;;;1.75;1.25;;;24.00;72.70;;;;;;5019652;28;20030;-52
2021/07/31 12:45:12;;;;;;;2.85;1.17;;;23.90;73.50;;;;;;5018624;28;20033;-51
2021/07/31 12:47:38;;;;;;;4.22;1.52;;;23.80;73.70;;;;;;5019264;28;20171;-54
2021/07/31 12:50:03;;;;;;;2.50;1.50;;;23.70;75.10;;;;;;5019788;28;20026;-53
2021/07/31 12:52:29;;;;;;;2.15;1.35;;;23.70;76.20;;;;;;5019297;28;20029;-52